sensor_id;sensor_type;location;lat;lon;timestamp;temperature;humidity
70593;DHT22;58294;42.988;20.338;2022-12-07T00:00:18;205.20;2252.80
70593;DHT22;58294;42.988;20.338;2022-12-07T00:02:44;205.10;2252.80
70593;DHT22;58294;42.988;20.338;2022-12-07T00:05:10;205.20;2252.80
70593;DHT22;58294;42.988;20.338;2022-12-07T00:07:36;205.20;2252.80
70593;DHT22;58294;42.988;20.338;2022-12-07T00:10:02;205.20;2252.80
70593;DHT22;58294;42.988;20.338;2022-12-07T00:12:27;205.20;2252.80
70593;DHT22;58294;42.988;20.338;2022-12-07T00:14:53;205.20;2252.80
70593;DHT22;58294;42.988;20.338;2022-12-07T00:17:19;205.20;2252.80
70593;DHT22;58294;42.988;20.338;2022-12-07T00:19:45;205.10;2252.80
70593;DHT22;58294;42.988;20.338;2022-12-07T00:22:10;205.10;2252.80
70593;DHT22;58294;42.988;20.338;2022-12-07T00:24:36;205.10;2252.80
70593;DHT22;58294;42.988;20.338;2022-12-07T00:27:02;205.10;2252.80
70593;DHT22;58294;42.988;20.338;2022-12-07T00:29:28;205.20;2252.80
70593;DHT22;58294;42.988;20.338;2022-12-07T00:31:53;205.20;2252.80
70593;DHT22;58294;42.988;20.338;2022-12-07T00:34:20;205.20;2252.80
70593;DHT22;58294;42.988;20.338;2022-12-07T00:36:47;205.30;2252.80
70593;DHT22;58294;42.988;20.338;2022-12-07T00:39:13;205.20;2252.80
70593;DHT22;58294;42.988;20.338;2022-12-07T00:41:39;205.20;2252.80
70593;DHT22;58294;42.988;20.338;2022-12-07T00:44:05;205.20;2252.80
70593;DHT22;58294;42.988;20.338;2022-12-07T00:46:31;205.20;2252.80
70593;DHT22;58294;42.988;20.338;2022-12-07T00:48:57;205.10;2252.80
70593;DHT22;58294;42.988;20.338;2022-12-07T00:51:24;205.00;2252.80
70593;DHT22;58294;42.988;20.338;2022-12-07T00:53:51;205.00;2252.80
70593;DHT22;58294;42.988;20.338;2022-12-07T00:56:26;205.00;2252.80
70593;DHT22;58294;42.988;20.338;2022-12-07T01:01:17;205.20;2252.80
70593;DHT22;58294;42.988;20.338;2022-12-07T01:03:43;205.10;2252.80
70593;DHT22;58294;42.988;20.338;2022-12-07T01:06:09;205.10;2252.80
70593;DHT22;58294;42.988;20.338;2022-12-07T01:08:34;205.10;2252.80
70593;DHT22;58294;42.988;20.338;2022-12-07T01:11:03;205.00;2252.80
70593;DHT22;58294;42.988;20.338;2022-12-07T01:13:30;205.00;2252.80
70593;DHT22;58294;42.988;20.338;2022-12-07T01:15:58;205.10;2252.80
70593;DHT22;58294;42.988;20.338;2022-12-07T01:18:29;205.20;2252.80
70593;DHT22;58294;42.988;20.338;2022-12-07T01:23:25;205.20;2252.80
70593;DHT22;58294;42.988;20.338;2022-12-07T01:26:00;205.30;2252.80
70593;DHT22;58294;42.988;20.338;2022-12-07T01:28:27;205.30;2252.80
70593;DHT22;58294;42.988;20.338;2022-12-07T01:30:58;205.30;2252.80
70593;DHT22;58294;42.988;20.338;2022-12-07T01:33:30;205.30;2252.80
70593;DHT22;58294;42.988;20.338;2022-12-07T01:38:32;205.20;2252.80
70593;DHT22;58294;42.988;20.338;2022-12-07T01:40:59;205.20;2252.80
70593;DHT22;58294;42.988;20.338;2022-12-07T01:43:28;205.10;2252.80
70593;DHT22;58294;42.988;20.338;2022-12-07T01:45:55;205.10;2252.80
70593;DHT22;58294;42.988;20.338;2022-12-07T01:48:37;205.20;2252.80
70593;DHT22;58294;42.988;20.338;2022-12-07T01:51:08;205.10;2252.80
70593;DHT22;58294;42.988;20.338;2022-12-07T01:53:37;205.10;2252.80
70593;DHT22;58294;42.988;20.338;2022-12-07T01:56:05;205.10;2252.80
70593;DHT22;58294;42.988;20.338;2022-12-07T01:58:31;205.10;2252.80
70593;DHT22;58294;42.988;20.338;2022-12-07T02:00:57;205.10;2252.80
70593;DHT22;58294;42.988;20.338;2022-12-07T02:03:42;205.00;2252.80
70593;DHT22;58294;42.988;20.338;2022-12-07T02:06:11;205.10;2252.80
70593;DHT22;58294;42.988;20.338;2022-12-07T02:08:38;205.10;2252.80
70593;DHT22;58294;42.988;20.338;2022-12-07T02:11:04;205.20;2252.80
70593;DHT22;58294;42.988;20.338;2022-12-07T02:13:34;205.20;2252.80
70593;DHT22;58294;42.988;20.338;2022-12-07T02:30:02;205.30;2252.80
70593;DHT22;58294;42.988;20.338;2022-12-07T02:32:43;205.30;2252.80
70593;DHT22;58294;42.988;20.338;2022-12-07T02:45:36;205.20;2252.80
70593;DHT22;58294;42.988;20.338;2022-12-07T02:48:04;205.20;2252.80
70593;DHT22;58294;42.988;20.338;2022-12-07T02:50:30;205.10;2252.80
70593;DHT22;58294;42.988;20.338;2022-12-07T02:52:56;205.20;2252.80
70593;DHT22;58294;42.988;20.338;2022-12-07T02:55:32;205.20;2252.80
70593;DHT22;58294;42.988;20.338;2022-12-07T02:58:35;205.20;2252.80
70593;DHT22;58294;42.988;20.338;2022-12-07T03:01:22;205.30;2252.80
70593;DHT22;58294;42.988;20.338;2022-12-07T03:04:28;205.30;2252.80
70593;DHT22;58294;42.988;20.338;2022-12-07T03:06:53;205.20;2252.80
70593;DHT22;58294;42.988;20.338;2022-12-07T03:12:19;205.10;2252.80
70593;DHT22;58294;42.988;20.338;2022-12-07T03:14:52;205.00;2252.80
70593;DHT22;58294;42.988;20.338;2022-12-07T03:17:26;205.00;2252.80
70593;DHT22;58294;42.988;20.338;2022-12-07T03:19:57;205.00;2252.80
70593;DHT22;58294;42.988;20.338;2022-12-07T03:22:23;205.00;2252.80
70593;DHT22;58294;42.988;20.338;2022-12-07T03:24:57;205.00;2252.80
70593;DHT22;58294;42.988;20.338;2022-12-07T03:27:27;204.90;2252.80
70593;DHT22;58294;42.988;20.338;2022-12-07T03:30:07;204.90;2252.80
70593;DHT22;58294;42.988;20.338;2022-12-07T03:32:38;204.90;2252.80
70593;DHT22;58294;42.988;20.338;2022-12-07T03:35:09;204.90;2252.80
70593;DHT22;58294;42.988;20.338;2022-12-07T03:42:53;205.00;2252.80
70593;DHT22;58294;42.988;20.338;2022-12-07T03:45:25;205.00;2252.80
70593;DHT22;58294;42.988;20.338;2022-12-07T03:48:13;205.00;2252.80
70593;DHT22;58294;42.988;20.338;2022-12-07T03:50:49;205.00;2252.80
70593;DHT22;58294;42.988;20.338;2022-12-07T03:53:24;204.90;2252.80
70593;DHT22;58294;42.988;20.338;2022-12-07T03:55:52;204.90;2252.80
70593;DHT22;58294;42.988;20.338;2022-12-07T03:58:20;204.90;2252.80
70593;DHT22;58294;42.988;20.338;2022-12-07T04:00:49;204.90;2252.80
70593;DHT22;58294;42.988;20.338;2022-12-07T04:03:15;204.90;2252.80
70593;DHT22;58294;42.988;20.338;2022-12-07T04:05:42;205.00;2252.80
70593;DHT22;58294;42.988;20.338;2022-12-07T04:08:08;205.00;2252.80
70593;DHT22;58294;42.988;20.338;2022-12-07T04:10:35;205.00;2252.80
70593;DHT22;58294;42.988;20.338;2022-12-07T04:13:00;205.00;2252.80
70593;DHT22;58294;42.988;20.338;2022-12-07T04:15:26;205.10;2252.80
70593;DHT22;58294;42.988;20.338;2022-12-07T04:17:53;205.10;2252.80
70593;DHT22;58294;42.988;20.338;2022-12-07T04:20:20;205.00;2252.80
70593;DHT22;58294;42.988;20.338;2022-12-07T04:22:46;205.10;2252.80
70593;DHT22;58294;42.988;20.338;2022-12-07T04:25:12;205.10;2252.80
70593;DHT22;58294;42.988;20.338;2022-12-07T04:27:38;205.00;2252.80
70593;DHT22;58294;42.988;20.338;2022-12-07T04:30:04;205.00;2252.80
70593;DHT22;58294;42.988;20.338;2022-12-07T04:32:30;205.00;2252.80
70593;DHT22;58294;42.988;20.338;2022-12-07T04:34:56;205.00;2252.80
70593;DHT22;58294;42.988;20.338;2022-12-07T04:37:23;205.00;2252.80
70593;DHT22;58294;42.988;20.338;2022-12-07T04:39:48;205.00;2252.80
70593;DHT22;58294;42.988;20.338;2022-12-07T04:42:14;205.00;2252.80
70593;DHT22;58294;42.988;20.338;2022-12-07T04:44:40;205.00;2252.80
70593;DHT22;58294;42.988;20.338;2022-12-07T04:47:06;205.00;2252.80
70593;DHT22;58294;42.988;20.338;2022-12-07T04:49:32;205.00;2252.80
70593;DHT22;58294;42.988;20.338;2022-12-07T04:51:58;205.00;2252.80
70593;DHT22;58294;42.988;20.338;2022-12-07T04:54:23;205.00;2252.80
70593;DHT22;58294;42.988;20.338;2022-12-07T04:56:49;205.10;2252.80
70593;DHT22;58294;42.988;20.338;2022-12-07T04:59:16;205.10;2252.80
70593;DHT22;58294;42.988;20.338;2022-12-07T05:01:42;205.10;2252.80
70593;DHT22;58294;42.988;20.338;2022-12-07T05:04:08;205.20;2252.80
70593;DHT22;58294;42.988;20.338;2022-12-07T05:06:35;205.20;2252.80
70593;DHT22;58294;42.988;20.338;2022-12-07T05:09:01;205.10;2252.80
70593;DHT22;58294;42.988;20.338;2022-12-07T05:11:27;205.10;2252.80
70593;DHT22;58294;42.988;20.338;2022-12-07T05:14:19;205.20;2252.80
70593;DHT22;58294;42.988;20.338;2022-12-07T05:16:47;205.20;2252.80
70593;DHT22;58294;42.988;20.338;2022-12-07T05:19:13;205.10;2252.80
70593;DHT22;58294;42.988;20.338;2022-12-07T05:21:40;205.10;2252.80
70593;DHT22;58294;42.988;20.338;2022-12-07T05:24:07;205.10;2252.80
70593;DHT22;58294;42.988;20.338;2022-12-07T05:26:34;205.10;2252.80
70593;DHT22;58294;42.988;20.338;2022-12-07T05:29:00;205.10;2252.80
70593;DHT22;58294;42.988;20.338;2022-12-07T05:31:26;205.10;2252.80
70593;DHT22;58294;42.988;20.338;2022-12-07T05:33:52;205.10;2252.80
70593;DHT22;58294;42.988;20.338;2022-12-07T05:36:18;205.10;2252.80
70593;DHT22;58294;42.988;20.338;2022-12-07T05:38:44;205.00;2252.80
70593;DHT22;58294;42.988;20.338;2022-12-07T05:41:14;205.00;2252.80
70593;DHT22;58294;42.988;20.338;2022-12-07T05:44:03;205.00;2252.80
70593;DHT22;58294;42.988;20.338;2022-12-07T05:46:30;205.00;2252.80
70593;DHT22;58294;42.988;20.338;2022-12-07T05:48:55;205.00;2252.80
70593;DHT22;58294;42.988;20.338;2022-12-07T05:51:22;205.00;2252.80
70593;DHT22;58294;42.988;20.338;2022-12-07T05:53:48;205.10;2252.80
70593;DHT22;58294;42.988;20.338;2022-12-07T05:56:13;205.10;2252.80
70593;DHT22;58294;42.988;20.338;2022-12-07T05:58:39;205.10;2252.80
70593;DHT22;58294;42.988;20.338;2022-12-07T06:01:23;205.10;2252.80
70593;DHT22;58294;42.988;20.338;2022-12-07T06:03:49;205.10;2252.80
70593;DHT22;58294;42.988;20.338;2022-12-07T06:06:15;205.10;2252.80
70593;DHT22;58294;42.988;20.338;2022-12-07T06:08:41;205.10;2252.80
70593;DHT22;58294;42.988;20.338;2022-12-07T06:11:06;205.10;2252.80
70593;DHT22;58294;42.988;20.338;2022-12-07T06:13:51;205.10;2252.80
70593;DHT22;58294;42.988;20.338;2022-12-07T06:16:16;205.10;2252.80
70593;DHT22;58294;42.988;20.338;2022-12-07T06:18:42;205.10;2252.80
70593;DHT22;58294;42.988;20.338;2022-12-07T06:21:08;205.10;2252.80
70593;DHT22;58294;42.988;20.338;2022-12-07T06:23:34;205.10;2252.80
70593;DHT22;58294;42.988;20.338;2022-12-07T06:25:59;205.10;2252.80
70593;DHT22;58294;42.988;20.338;2022-12-07T06:28:25;205.10;2252.80
70593;DHT22;58294;42.988;20.338;2022-12-07T06:30:58;205.20;2252.80
70593;DHT22;58294;42.988;20.338;2022-12-07T06:33:25;205.20;2252.80
70593;DHT22;58294;42.988;20.338;2022-12-07T06:35:50;205.20;2252.80
70593;DHT22;58294;42.988;20.338;2022-12-07T06:38:16;205.20;2252.80
70593;DHT22;58294;42.988;20.338;2022-12-07T06:40:42;205.20;2252.80
70593;DHT22;58294;42.988;20.338;2022-12-07T06:43:08;205.20;2252.80
70593;DHT22;58294;42.988;20.338;2022-12-07T06:45:34;205.20;2252.80
70593;DHT22;58294;42.988;20.338;2022-12-07T06:48:00;205.20;2252.80
70593;DHT22;58294;42.988;20.338;2022-12-07T06:50:26;205.30;2252.80
70593;DHT22;58294;42.988;20.338;2022-12-07T06:52:52;205.30;2252.80
70593;DHT22;58294;42.988;20.338;2022-12-07T06:55:18;205.20;2252.80
70593;DHT22;58294;42.988;20.338;2022-12-07T06:57:44;205.20;2252.80
70593;DHT22;58294;42.988;20.338;2022-12-07T07:00:10;205.20;2252.80
70593;DHT22;58294;42.988;20.338;2022-12-07T07:02:36;205.30;2252.80
70593;DHT22;58294;42.988;20.338;2022-12-07T07:05:02;205.30;2252.80
70593;DHT22;58294;42.988;20.338;2022-12-07T07:07:28;205.30;2252.80
70593;DHT22;58294;42.988;20.338;2022-12-07T07:09:54;205.30;2252.80
70593;DHT22;58294;42.988;20.338;2022-12-07T07:12:20;205.30;2252.80
70593;DHT22;58294;42.988;20.338;2022-12-07T07:14:46;205.30;2252.80
70593;DHT22;58294;42.988;20.338;2022-12-07T07:17:12;205.30;2252.80
70593;DHT22;58294;42.988;20.338;2022-12-07T07:19:38;205.40;2252.80
70593;DHT22;58294;42.988;20.338;2022-12-07T07:22:04;205.40;2252.80
70593;DHT22;58294;42.988;20.338;2022-12-07T07:24:30;205.30;2252.80
70593;DHT22;58294;42.988;20.338;2022-12-07T07:26:55;205.30;2252.80
70593;DHT22;58294;42.988;20.338;2022-12-07T07:29:21;205.30;2252.80
70593;DHT22;58294;42.988;20.338;2022-12-07T07:31:47;205.30;2252.80
70593;DHT22;58294;42.988;20.338;2022-12-07T07:34:13;205.30;2252.80
70593;DHT22;58294;42.988;20.338;2022-12-07T07:36:39;205.20;2252.80
70593;DHT22;58294;42.988;20.338;2022-12-07T07:39:05;205.20;2252.80
70593;DHT22;58294;42.988;20.338;2022-12-07T07:41:31;205.30;2252.80
70593;DHT22;58294;42.988;20.338;2022-12-07T07:43:57;205.30;2252.80
70593;DHT22;58294;42.988;20.338;2022-12-07T07:46:22;205.40;2252.80
70593;DHT22;58294;42.988;20.338;2022-12-07T07:48:48;205.40;2252.80
70593;DHT22;58294;42.988;20.338;2022-12-07T07:51:14;205.50;2252.80
70593;DHT22;58294;42.988;20.338;2022-12-07T07:53:40;205.50;2252.80
70593;DHT22;58294;42.988;20.338;2022-12-07T07:56:06;205.60;2252.80
70593;DHT22;58294;42.988;20.338;2022-12-07T07:58:31;205.60;2252.80
70593;DHT22;58294;42.988;20.338;2022-12-07T08:01:03;205.70;2252.80
70593;DHT22;58294;42.988;20.338;2022-12-07T08:03:29;205.70;2252.80
70593;DHT22;58294;42.988;20.338;2022-12-07T08:05:55;205.60;2252.80
70593;DHT22;58294;42.988;20.338;2022-12-07T08:08:21;205.60;2252.80
70593;DHT22;58294;42.988;20.338;2022-12-07T08:10:46;205.60;2252.80
70593;DHT22;58294;42.988;20.338;2022-12-07T08:13:15;205.70;2252.80
70593;DHT22;58294;42.988;20.338;2022-12-07T08:15:43;205.70;2252.80
70593;DHT22;58294;42.988;20.338;2022-12-07T08:18:09;205.70;2252.80
70593;DHT22;58294;42.988;20.338;2022-12-07T08:20:36;205.70;2252.80
70593;DHT22;58294;42.988;20.338;2022-12-07T08:23:02;205.70;2252.80
70593;DHT22;58294;42.988;20.338;2022-12-07T08:25:28;205.60;2252.80
70593;DHT22;58294;42.988;20.338;2022-12-07T08:27:54;205.70;2252.80
70593;DHT22;58294;42.988;20.338;2022-12-07T08:30:20;205.60;2252.80
70593;DHT22;58294;42.988;20.338;2022-12-07T08:32:47;205.70;2252.80
70593;DHT22;58294;42.988;20.338;2022-12-07T08:35:14;230.40;2252.80
70593;DHT22;58294;42.988;20.338;2022-12-07T08:37:40;230.40;2252.80
70593;DHT22;58294;42.988;20.338;2022-12-07T08:40:08;230.50;2252.80
70593;DHT22;58294;42.988;20.338;2022-12-07T08:42:35;230.60;2252.80
70593;DHT22;58294;42.988;20.338;2022-12-07T08:45:09;230.70;2252.80
70593;DHT22;58294;42.988;20.338;2022-12-07T08:47:39;230.70;2252.80
70593;DHT22;58294;42.988;20.338;2022-12-07T08:50:07;230.70;2252.80
70593;DHT22;58294;42.988;20.338;2022-12-07T08:52:35;230.80;2252.80
70593;DHT22;58294;42.988;20.338;2022-12-07T08:55:01;230.80;2252.80
70593;DHT22;58294;42.988;20.338;2022-12-07T08:57:29;230.80;2252.80
70593;DHT22;58294;42.988;20.338;2022-12-07T08:59:55;230.70;2252.80
70593;DHT22;58294;42.988;20.338;2022-12-07T09:02:21;230.80;2252.80
70593;DHT22;58294;42.988;20.338;2022-12-07T09:04:47;230.90;2252.80
70593;DHT22;58294;42.988;20.338;2022-12-07T09:07:13;231.00;2252.80
70593;DHT22;58294;42.988;20.338;2022-12-07T09:09:39;231.10;2252.80
70593;DHT22;58294;42.988;20.338;2022-12-07T09:12:04;231.20;2252.80
70593;DHT22;58294;42.988;20.338;2022-12-07T09:14:30;231.20;2252.80
70593;DHT22;58294;42.988;20.338;2022-12-07T09:17:08;231.10;2252.80
70593;DHT22;58294;42.988;20.338;2022-12-07T09:19:34;231.20;2252.80
70593;DHT22;58294;42.988;20.338;2022-12-07T09:22:00;231.20;2252.80
70593;DHT22;58294;42.988;20.338;2022-12-07T09:24:26;231.10;2252.80
70593;DHT22;58294;42.988;20.338;2022-12-07T09:26:52;231.10;2252.80
70593;DHT22;58294;42.988;20.338;2022-12-07T09:29:18;231.20;2252.80
70593;DHT22;58294;42.988;20.338;2022-12-07T09:31:43;231.30;2252.80
70593;DHT22;58294;42.988;20.338;2022-12-07T09:34:09;231.30;2252.80
70593;DHT22;58294;42.988;20.338;2022-12-07T09:36:35;256.00;2252.80
70593;DHT22;58294;42.988;20.338;2022-12-07T09:39:01;256.00;2252.80
70593;DHT22;58294;42.988;20.338;2022-12-07T09:41:30;256.10;2252.80
70593;DHT22;58294;42.988;20.338;2022-12-07T09:46:36;256.20;2252.80
70593;DHT22;58294;42.988;20.338;2022-12-07T09:49:03;256.30;2252.80
70593;DHT22;58294;42.988;20.338;2022-12-07T09:51:29;256.30;2252.80
70593;DHT22;58294;42.988;20.338;2022-12-07T09:53:58;256.30;2252.80
70593;DHT22;58294;42.988;20.338;2022-12-07T09:56:28;256.30;2252.80
70593;DHT22;58294;42.988;20.338;2022-12-07T09:59:03;256.40;2252.80
70593;DHT22;58294;42.988;20.338;2022-12-07T10:01:31;256.40;2252.80
70593;DHT22;58294;42.988;20.338;2022-12-07T10:04:23;256.30;2252.80
70593;DHT22;58294;42.988;20.338;2022-12-07T10:06:50;256.20;2252.80
70593;DHT22;58294;42.988;20.338;2022-12-07T10:09:19;256.20;2252.80
70593;DHT22;58294;42.988;20.338;2022-12-07T10:12:08;256.20;2252.80
70593;DHT22;58294;42.988;20.338;2022-12-07T10:17:32;256.60;2252.80
70593;DHT22;58294;42.988;20.338;2022-12-07T10:20:15;256.60;2252.80
70593;DHT22;58294;42.988;20.338;2022-12-07T10:23:02;256.60;2252.80
70593;DHT22;58294;42.988;20.338;2022-12-07T10:25:34;256.80;2252.80
70593;DHT22;58294;42.988;20.338;2022-12-07T10:28:16;281.60;2278.40
70593;DHT22;58294;42.988;20.338;2022-12-07T10:30:59;281.60;2278.40
70593;DHT22;58294;42.988;20.338;2022-12-07T10:33:34;281.60;2278.40
70593;DHT22;58294;42.988;20.338;2022-12-07T10:36:17;281.60;2278.40
70593;DHT22;58294;42.988;20.338;2022-12-07T10:38:46;281.60;2278.40
70593;DHT22;58294;42.988;20.338;2022-12-07T10:41:12;281.70;2278.40
70593;DHT22;58294;42.988;20.338;2022-12-07T10:43:51;281.70;2278.40
70593;DHT22;58294;42.988;20.338;2022-12-07T10:46:44;281.80;2278.40
70593;DHT22;58294;42.988;20.338;2022-12-07T10:52:29;281.90;2278.40
70593;DHT22;58294;42.988;20.338;2022-12-07T10:58:04;282.00;2278.40
70593;DHT22;58294;42.988;20.338;2022-12-07T11:04:07;282.00;2278.40
70593;DHT22;58294;42.988;20.338;2022-12-07T11:06:50;282.00;2278.40
70593;DHT22;58294;42.988;20.338;2022-12-07T11:12:20;281.80;2278.40
70593;DHT22;58294;42.988;20.338;2022-12-07T11:20:29;282.00;2278.40
70593;DHT22;58294;42.988;20.338;2022-12-07T11:34:04;282.20;2278.40
70593;DHT22;58294;42.988;20.338;2022-12-07T11:36:52;282.20;2278.40
70593;DHT22;58294;42.988;20.338;2022-12-07T11:39:33;282.30;2278.40
70593;DHT22;58294;42.988;20.338;2022-12-07T11:42:24;282.40;2278.40
70593;DHT22;58294;42.988;20.338;2022-12-07T11:44:50;282.40;2278.40
70593;DHT22;58294;42.988;20.338;2022-12-07T11:50:52;282.40;2278.40
70593;DHT22;58294;42.988;20.338;2022-12-07T11:53:36;282.40;2278.40
70593;DHT22;58294;42.988;20.338;2022-12-07T11:56:16;282.50;2278.40
70593;DHT22;58294;42.988;20.338;2022-12-07T11:58:49;282.50;2278.40
70593;DHT22;58294;42.988;20.338;2022-12-07T12:04:27;307.20;2304.00
70593;DHT22;58294;42.988;20.338;2022-12-07T12:06:54;307.20;2304.00
70593;DHT22;58294;42.988;20.338;2022-12-07T12:09:29;307.20;2304.00
70593;DHT22;58294;42.988;20.338;2022-12-07T12:26:03;307.20;2304.00
70593;DHT22;58294;42.988;20.338;2022-12-07T12:33:48;307.30;2304.00
70593;DHT22;58294;42.988;20.338;2022-12-07T12:47:04;307.40;2304.00
70593;DHT22;58294;42.988;20.338;2022-12-07T12:49:38;307.40;2304.00
70593;DHT22;58294;42.988;20.338;2022-12-07T12:55:11;307.40;2304.00
70593;DHT22;58294;42.988;20.338;2022-12-07T12:57:37;307.40;2304.00
70593;DHT22;58294;42.988;20.338;2022-12-07T13:00:21;307.40;2304.00
70593;DHT22;58294;42.988;20.338;2022-12-07T13:02:51;307.40;2304.00
70593;DHT22;58294;42.988;20.338;2022-12-07T13:05:23;307.40;2304.00
70593;DHT22;58294;42.988;20.338;2022-12-07T13:08:02;307.40;2304.00
70593;DHT22;58294;42.988;20.338;2022-12-07T13:10:42;307.40;2304.00
70593;DHT22;58294;42.988;20.338;2022-12-07T13:34:26;307.60;2304.00
70593;DHT22;58294;42.988;20.338;2022-12-07T13:36:51;307.60;2304.00
70593;DHT22;58294;42.988;20.338;2022-12-07T13:39:23;307.60;2304.00
70593;DHT22;58294;42.988;20.338;2022-12-07T13:41:54;307.50;2304.00
70593;DHT22;58294;42.988;20.338;2022-12-07T13:44:21;307.50;2304.00
70593;DHT22;58294;42.988;20.338;2022-12-07T13:51:51;307.40;2304.00
70593;DHT22;58294;42.988;20.338;2022-12-07T13:54:18;307.40;2304.00
70593;DHT22;58294;42.988;20.338;2022-12-07T13:56:50;307.40;2304.00
70593;DHT22;58294;42.988;20.338;2022-12-07T13:59:19;307.40;2304.00
70593;DHT22;58294;42.988;20.338;2022-12-07T14:01:47;307.40;2304.00
70593;DHT22;58294;42.988;20.338;2022-12-07T14:06:53;307.50;2304.00
70593;DHT22;58294;42.988;20.338;2022-12-07T14:09:21;307.40;2304.00
70593;DHT22;58294;42.988;20.338;2022-12-07T14:11:49;307.40;2304.00
70593;DHT22;58294;42.988;20.338;2022-12-07T14:14:19;307.40;2304.00
70593;DHT22;58294;42.988;20.338;2022-12-07T14:16:56;307.40;2304.00
70593;DHT22;58294;42.988;20.338;2022-12-07T14:19:56;307.30;2304.00
70593;DHT22;58294;42.988;20.338;2022-12-07T14:22:25;307.30;2304.00
70593;DHT22;58294;42.988;20.338;2022-12-07T14:24:59;307.20;2304.00
70593;DHT22;58294;42.988;20.338;2022-12-07T14:27:31;307.20;2304.00
70593;DHT22;58294;42.988;20.338;2022-12-07T14:30:00;307.20;2304.00
70593;DHT22;58294;42.988;20.338;2022-12-07T14:32:28;307.20;2304.00
70593;DHT22;58294;42.988;20.338;2022-12-07T14:34:59;282.50;2278.40
70593;DHT22;58294;42.988;20.338;2022-12-07T14:37:26;282.40;2278.40
70593;DHT22;58294;42.988;20.338;2022-12-07T14:39:52;282.20;2278.40
70593;DHT22;58294;42.988;20.338;2022-12-07T14:42:18;282.10;2278.40
70593;DHT22;58294;42.988;20.338;2022-12-07T14:44:44;282.10;2278.40
70593;DHT22;58294;42.988;20.338;2022-12-07T14:47:11;282.00;2278.40
70593;DHT22;58294;42.988;20.338;2022-12-07T14:49:37;282.00;2278.40
70593;DHT22;58294;42.988;20.338;2022-12-07T14:52:03;282.00;2278.40
70593;DHT22;58294;42.988;20.338;2022-12-07T14:54:32;282.00;2278.40
70593;DHT22;58294;42.988;20.338;2022-12-07T14:56:58;281.90;2278.40
70593;DHT22;58294;42.988;20.338;2022-12-07T14:59:24;281.80;2278.40
70593;DHT22;58294;42.988;20.338;2022-12-07T15:01:50;281.70;2278.40
70593;DHT22;58294;42.988;20.338;2022-12-07T15:04:15;281.60;2278.40
70593;DHT22;58294;42.988;20.338;2022-12-07T15:06:41;281.70;2278.40
70593;DHT22;58294;42.988;20.338;2022-12-07T15:09:11;281.60;2278.40
70593;DHT22;58294;42.988;20.338;2022-12-07T15:11:37;256.90;2252.80
70593;DHT22;58294;42.988;20.338;2022-12-07T15:14:02;256.90;2252.80
70593;DHT22;58294;42.988;20.338;2022-12-07T15:16:37;256.80;2252.80
70593;DHT22;58294;42.988;20.338;2022-12-07T15:19:05;256.70;2252.80
70593;DHT22;58294;42.988;20.338;2022-12-07T15:21:31;256.60;2252.80
70593;DHT22;58294;42.988;20.338;2022-12-07T15:23:57;256.50;2252.80
70593;DHT22;58294;42.988;20.338;2022-12-07T15:26:23;256.40;2252.80
70593;DHT22;58294;42.988;20.338;2022-12-07T15:28:49;256.30;2252.80
70593;DHT22;58294;42.988;20.338;2022-12-07T15:31:15;256.40;2252.80
70593;DHT22;58294;42.988;20.338;2022-12-07T15:33:42;256.40;2252.80
70593;DHT22;58294;42.988;20.338;2022-12-07T15:36:08;256.40;2252.80
70593;DHT22;58294;42.988;20.338;2022-12-07T15:38:41;256.40;2252.80
70593;DHT22;58294;42.988;20.338;2022-12-07T15:41:06;256.30;2252.80
70593;DHT22;58294;42.988;20.338;2022-12-07T15:43:32;256.30;2252.80
70593;DHT22;58294;42.988;20.338;2022-12-07T15:46:16;256.30;2252.80
70593;DHT22;58294;42.988;20.338;2022-12-07T15:48:42;256.40;2252.80
70593;DHT22;58294;42.988;20.338;2022-12-07T15:51:08;256.40;2252.80
70593;DHT22;58294;42.988;20.338;2022-12-07T15:53:35;256.30;2252.80
70593;DHT22;58294;42.988;20.338;2022-12-07T15:56:01;256.30;2252.80
70593;DHT22;58294;42.988;20.338;2022-12-07T15:58:31;256.30;2252.80
70593;DHT22;58294;42.988;20.338;2022-12-07T16:00:57;256.30;2252.80
70593;DHT22;58294;42.988;20.338;2022-12-07T16:03:23;256.40;2252.80
70593;DHT22;58294;42.988;20.338;2022-12-07T16:05:50;256.30;2252.80
70593;DHT22;58294;42.988;20.338;2022-12-07T16:08:16;256.40;2252.80
70593;DHT22;58294;42.988;20.338;2022-12-07T16:10:41;256.30;2252.80
70593;DHT22;58294;42.988;20.338;2022-12-07T16:13:09;256.40;2252.80
70593;DHT22;58294;42.988;20.338;2022-12-07T16:15:39;256.40;2252.80
70593;DHT22;58294;42.988;20.338;2022-12-07T16:18:05;256.40;2252.80
70593;DHT22;58294;42.988;20.338;2022-12-07T16:20:31;256.30;2252.80
70593;DHT22;58294;42.988;20.338;2022-12-07T16:22:57;256.30;2252.80
70593;DHT22;58294;42.988;20.338;2022-12-07T16:25:23;256.30;2252.80
70593;DHT22;58294;42.988;20.338;2022-12-07T16:27:50;256.20;2252.80
70593;DHT22;58294;42.988;20.338;2022-12-07T16:30:16;256.20;2252.80
70593;DHT22;58294;42.988;20.338;2022-12-07T16:32:42;256.20;2252.80
70593;DHT22;58294;42.988;20.338;2022-12-07T16:35:09;256.20;2252.80
70593;DHT22;58294;42.988;20.338;2022-12-07T16:37:35;256.20;2252.80
70593;DHT22;58294;42.988;20.338;2022-12-07T16:40:01;256.30;2252.80
70593;DHT22;58294;42.988;20.338;2022-12-07T16:42:27;256.30;2252.80
70593;DHT22;58294;42.988;20.338;2022-12-07T16:44:56;256.30;2252.80
70593;DHT22;58294;42.988;20.338;2022-12-07T16:47:22;256.20;2252.80
70593;DHT22;58294;42.988;20.338;2022-12-07T16:49:48;256.10;2252.80
70593;DHT22;58294;42.988;20.338;2022-12-07T16:52:13;256.10;2252.80
70593;DHT22;58294;42.988;20.338;2022-12-07T16:54:39;256.10;2252.80
70593;DHT22;58294;42.988;20.338;2022-12-07T16:57:05;256.20;2252.80
70593;DHT22;58294;42.988;20.338;2022-12-07T16:59:31;256.20;2252.80
70593;DHT22;58294;42.988;20.338;2022-12-07T17:01:57;256.10;2252.80
70593;DHT22;58294;42.988;20.338;2022-12-07T17:04:22;256.00;2252.80
70593;DHT22;58294;42.988;20.338;2022-12-07T17:06:48;256.00;2252.80
70593;DHT22;58294;42.988;20.338;2022-12-07T17:09:14;256.00;2252.80